sensor_id;sensor_type;location;lat;lon;timestamp;P1;durP1;ratioP1;P2;durP2;ratioP2
11837;SDS011;5978;51.020;6.764;2023-05-10T00:01:54;16.63;;;11.83;;
11837;SDS011;5978;51.020;6.764;2023-05-10T00:04:19;16.83;;;11.43;;
11837;SDS011;5978;51.020;6.764;2023-05-10T00:06:45;20.33;;;11.57;;
11837;SDS011;5978;51.020;6.764;2023-05-10T00:09:11;19.93;;;12.10;;
11837;SDS011;5978;51.020;6.764;2023-05-10T00:11:36;19.40;;;11.80;;
11837;SDS011;5978;51.020;6.764;2023-05-10T00:14:02;18.47;;;11.43;;
11837;SDS011;5978;51.020;6.764;2023-05-10T00:16:27;15.77;;;10.83;;
11837;SDS011;5978;51.020;6.764;2023-05-10T00:18:53;16.80;;;10.83;;
11837;SDS011;5978;51.020;6.764;2023-05-10T00:21:19;14.60;;;11.20;;
11837;SDS011;5978;51.020;6.764;2023-05-10T00:23:44;47.47;;;13.53;;
11837;SDS011;5978;51.020;6.764;2023-05-10T00:26:10;20.67;;;12.90;;
11837;SDS011;5978;51.020;6.764;2023-05-10T00:28:35;18.77;;;12.13;;
11837;SDS011;5978;51.020;6.764;2023-05-10T00:31:01;17.77;;;12.73;;
11837;SDS011;5978;51.020;6.764;2023-05-10T00:33:27;19.17;;;12.50;;
11837;SDS011;5978;51.020;6.764;2023-05-10T00:35:52;16.33;;;11.67;;
11837;SDS011;5978;51.020;6.764;2023-05-10T00:38:18;17.73;;;12.60;;
11837;SDS011;5978;51.020;6.764;2023-05-10T00:40:43;16.50;;;11.00;;
11837;SDS011;5978;51.020;6.764;2023-05-10T00:43:09;21.03;;;12.80;;
11837;SDS011;5978;51.020;6.764;2023-05-10T00:45:34;16.83;;;11.70;;
11837;SDS011;5978;51.020;6.764;2023-05-10T00:48:02;19.33;;;11.57;;
11837;SDS011;5978;51.020;6.764;2023-05-10T00:50:28;17.33;;;12.20;;
11837;SDS011;5978;51.020;6.764;2023-05-10T00:52:55;18.57;;;11.60;;
11837;SDS011;5978;51.020;6.764;2023-05-10T00:55:22;18.83;;;12.13;;
11837;SDS011;5978;51.020;6.764;2023-05-10T00:57:48;17.50;;;12.47;;
11837;SDS011;5978;51.020;6.764;2023-05-10T01:00:14;17.50;;;11.33;;
11837;SDS011;5978;51.020;6.764;2023-05-10T01:02:43;16.60;;;12.00;;
11837;SDS011;5978;51.020;6.764;2023-05-10T01:05:10;18.70;;;11.93;;
11837;SDS011;5978;51.020;6.764;2023-05-10T01:07:36;17.47;;;10.37;;
11837;SDS011;5978;51.020;6.764;2023-05-10T01:10:02;15.30;;;10.33;;
11837;SDS011;5978;51.020;6.764;2023-05-10T01:12:27;17.33;;;11.33;;
11837;SDS011;5978;51.020;6.764;2023-05-10T01:14:53;18.63;;;12.33;;
11837;SDS011;5978;51.020;6.764;2023-05-10T01:17:19;17.10;;;11.40;;
11837;SDS011;5978;51.020;6.764;2023-05-10T01:19:46;18.43;;;11.30;;
11837;SDS011;5978;51.020;6.764;2023-05-10T01:27:47;11.60;;;8.40;;
11837;SDS011;5978;51.020;6.764;2023-05-10T01:31:02;10.90;;;7.23;;
11837;SDS011;5978;51.020;6.764;2023-05-10T01:41:55;11.93;;;7.10;;
11837;SDS011;5978;51.020;6.764;2023-05-10T01:44:34;11.70;;;7.20;;
11837;SDS011;5978;51.020;6.764;2023-05-10T01:47:38;10.60;;;6.57;;
11837;SDS011;5978;51.020;6.764;2023-05-10T01:50:29;8.30;;;6.83;;
11837;SDS011;5978;51.020;6.764;2023-05-10T01:52:56;8.27;;;5.67;;
11837;SDS011;5978;51.020;6.764;2023-05-10T01:55:25;7.77;;;5.80;;
11837;SDS011;5978;51.020;6.764;2023-05-10T01:57:56;7.97;;;6.30;;
11837;SDS011;5978;51.020;6.764;2023-05-10T02:00:29;6.50;;;5.80;;
11837;SDS011;5978;51.020;6.764;2023-05-10T02:02:56;7.80;;;6.40;;
11837;SDS011;5978;51.020;6.764;2023-05-10T02:05:22;9.00;;;6.77;;
11837;SDS011;5978;51.020;6.764;2023-05-10T02:07:49;8.00;;;5.70;;
11837;SDS011;5978;51.020;6.764;2023-05-10T02:10:16;5.70;;;5.03;;
11837;SDS011;5978;51.020;6.764;2023-05-10T02:12:43;8.40;;;6.80;;
11837;SDS011;5978;51.020;6.764;2023-05-10T02:15:12;9.90;;;7.00;;
11837;SDS011;5978;51.020;6.764;2023-05-10T02:17:42;8.17;;;6.20;;
11837;SDS011;5978;51.020;6.764;2023-05-10T02:20:10;7.53;;;6.43;;
11837;SDS011;5978;51.020;6.764;2023-05-10T02:22:37;8.03;;;5.80;;
11837;SDS011;5978;51.020;6.764;2023-05-10T02:25:05;8.93;;;6.40;;
11837;SDS011;5978;51.020;6.764;2023-05-10T02:27:33;10.10;;;6.30;;
11837;SDS011;5978;51.020;6.764;2023-05-10T02:30:00;9.60;;;6.70;;
11837;SDS011;5978;51.020;6.764;2023-05-10T02:32:26;10.87;;;7.20;;
11837;SDS011;5978;51.020;6.764;2023-05-10T02:34:53;7.70;;;6.00;;
11837;SDS011;5978;51.020;6.764;2023-05-10T02:37:20;10.33;;;7.03;;
11837;SDS011;5978;51.020;6.764;2023-05-10T02:39:47;8.47;;;6.80;;
11837;SDS011;5978;51.020;6.764;2023-05-10T02:42:16;10.20;;;6.63;;
11837;SDS011;5978;51.020;6.764;2023-05-10T02:44:47;11.13;;;7.33;;
11837;SDS011;5978;51.020;6.764;2023-05-10T02:47:15;9.53;;;7.07;;
11837;SDS011;5978;51.020;6.764;2023-05-10T02:49:41;11.20;;;7.73;;
11837;SDS011;5978;51.020;6.764;2023-05-10T02:52:07;24.63;;;8.43;;
11837;SDS011;5978;51.020;6.764;2023-05-10T02:54:40;10.70;;;7.60;;
11837;SDS011;5978;51.020;6.764;2023-05-10T02:57:09;13.67;;;8.40;;
11837;SDS011;5978;51.020;6.764;2023-05-10T02:59:40;11.80;;;8.23;;
11837;SDS011;5978;51.020;6.764;2023-05-10T03:02:07;10.20;;;7.37;;
11837;SDS011;5978;51.020;6.764;2023-05-10T03:04:34;13.80;;;9.30;;
11837;SDS011;5978;51.020;6.764;2023-05-10T03:06:59;13.73;;;8.53;;
11837;SDS011;5978;51.020;6.764;2023-05-10T03:09:25;14.80;;;9.23;;
11837;SDS011;5978;51.020;6.764;2023-05-10T03:14:21;13.57;;;8.77;;
11837;SDS011;5978;51.020;6.764;2023-05-10T03:22:32;18.20;;;10.60;;
11837;SDS011;5978;51.020;6.764;2023-05-10T03:25:11;16.53;;;10.93;;
11837;SDS011;5978;51.020;6.764;2023-05-10T03:27:39;16.30;;;11.30;;
11837;SDS011;5978;51.020;6.764;2023-05-10T03:30:07;15.07;;;10.87;;
11837;SDS011;5978;51.020;6.764;2023-05-10T03:32:35;18.00;;;11.87;;
11837;SDS011;5978;51.020;6.764;2023-05-10T03:35:01;16.37;;;12.23;;
11837;SDS011;5978;51.020;6.764;2023-05-10T03:37:31;17.77;;;12.87;;
11837;SDS011;5978;51.020;6.764;2023-05-10T03:39:56;20.60;;;14.10;;
11837;SDS011;5978;51.020;6.764;2023-05-10T03:42:22;19.07;;;12.50;;
11837;SDS011;5978;51.020;6.764;2023-05-10T03:44:48;26.90;;;13.80;;
11837;SDS011;5978;51.020;6.764;2023-05-10T03:47:14;23.60;;;13.83;;
11837;SDS011;5978;51.020;6.764;2023-05-10T03:49:39;19.53;;;13.40;;
11837;SDS011;5978;51.020;6.764;2023-05-10T03:52:05;18.93;;;13.00;;
11837;SDS011;5978;51.020;6.764;2023-05-10T03:54:31;22.20;;;14.63;;
11837;SDS011;5978;51.020;6.764;2023-05-10T03:56:57;20.50;;;13.50;;
11837;SDS011;5978;51.020;6.764;2023-05-10T03:59:23;20.20;;;15.20;;
11837;SDS011;5978;51.020;6.764;2023-05-10T04:01:48;21.60;;;14.70;;
11837;SDS011;5978;51.020;6.764;2023-05-10T04:04:14;21.23;;;14.93;;
11837;SDS011;5978;51.020;6.764;2023-05-10T04:06:40;22.27;;;15.27;;
11837;SDS011;5978;51.020;6.764;2023-05-10T04:09:05;20.50;;;15.97;;
11837;SDS011;5978;51.020;6.764;2023-05-10T04:11:31;22.67;;;14.67;;
11837;SDS011;5978;51.020;6.764;2023-05-10T04:13:56;21.23;;;15.53;;
11837;SDS011;5978;51.020;6.764;2023-05-10T04:16:22;23.70;;;16.07;;
11837;SDS011;5978;51.020;6.764;2023-05-10T04:18:47;25.33;;;14.13;;
11837;SDS011;5978;51.020;6.764;2023-05-10T04:21:14;27.20;;;15.90;;
11837;SDS011;5978;51.020;6.764;2023-05-10T04:23:39;26.70;;;16.67;;
11837;SDS011;5978;51.020;6.764;2023-05-10T04:26:05;22.20;;;14.77;;
11837;SDS011;5978;51.020;6.764;2023-05-10T04:28:31;23.57;;;14.67;;
11837;SDS011;5978;51.020;6.764;2023-05-10T04:31:03;26.37;;;15.50;;
11837;SDS011;5978;51.020;6.764;2023-05-10T04:33:30;25.33;;;16.20;;
11837;SDS011;5978;51.020;6.764;2023-05-10T04:35:56;22.40;;;14.10;;
11837;SDS011;5978;51.020;6.764;2023-05-10T04:38:21;27.93;;;15.37;;
11837;SDS011;5978;51.020;6.764;2023-05-10T04:40:47;21.87;;;14.87;;
11837;SDS011;5978;51.020;6.764;2023-05-10T04:43:12;21.20;;;15.17;;
11837;SDS011;5978;51.020;6.764;2023-05-10T04:45:38;29.63;;;15.83;;
11837;SDS011;5978;51.020;6.764;2023-05-10T04:48:03;24.80;;;15.83;;
11837;SDS011;5978;51.020;6.764;2023-05-10T04:50:29;23.27;;;14.77;;
11837;SDS011;5978;51.020;6.764;2023-05-10T04:52:55;23.43;;;17.30;;
11837;SDS011;5978;51.020;6.764;2023-05-10T04:55:20;23.60;;;15.00;;
11837;SDS011;5978;51.020;6.764;2023-05-10T04:57:46;18.80;;;13.77;;
11837;SDS011;5978;51.020;6.764;2023-05-10T05:00:12;19.80;;;13.30;;
11837;SDS011;5978;51.020;6.764;2023-05-10T05:02:37;20.40;;;13.70;;
11837;SDS011;5978;51.020;6.764;2023-05-10T05:05:03;22.80;;;15.30;;
11837;SDS011;5978;51.020;6.764;2023-05-10T05:07:29;21.83;;;14.67;;
11837;SDS011;5978;51.020;6.764;2023-05-10T05:09:55;20.57;;;13.53;;
11837;SDS011;5978;51.020;6.764;2023-05-10T05:12:21;26.80;;;13.30;;
11837;SDS011;5978;51.020;6.764;2023-05-10T05:14:46;19.80;;;13.60;;
11837;SDS011;5978;51.020;6.764;2023-05-10T05:17:12;24.70;;;12.93;;
11837;SDS011;5978;51.020;6.764;2023-05-10T05:19:38;17.30;;;12.93;;
11837;SDS011;5978;51.020;6.764;2023-05-10T05:22:03;22.13;;;13.50;;
11837;SDS011;5978;51.020;6.764;2023-05-10T05:24:34;20.20;;;14.57;;
11837;SDS011;5978;51.020;6.764;2023-05-10T05:27:01;24.63;;;12.90;;
11837;SDS011;5978;51.020;6.764;2023-05-10T05:29:26;26.13;;;15.40;;
11837;SDS011;5978;51.020;6.764;2023-05-10T05:31:52;30.10;;;14.20;;
11837;SDS011;5978;51.020;6.764;2023-05-10T05:34:17;20.20;;;14.13;;
11837;SDS011;5978;51.020;6.764;2023-05-10T05:36:45;19.60;;;14.30;;
11837;SDS011;5978;51.020;6.764;2023-05-10T05:39:11;21.80;;;14.13;;
11837;SDS011;5978;51.020;6.764;2023-05-10T05:41:36;18.23;;;12.83;;
11837;SDS011;5978;51.020;6.764;2023-05-10T05:44:02;24.10;;;13.27;;
11837;SDS011;5978;51.020;6.764;2023-05-10T05:46:27;23.43;;;13.17;;
11837;SDS011;5978;51.020;6.764;2023-05-10T05:48:53;22.73;;;12.93;;
11837;SDS011;5978;51.020;6.764;2023-05-10T05:51:18;30.03;;;13.70;;
11837;SDS011;5978;51.020;6.764;2023-05-10T05:53:44;19.03;;;12.43;;
11837;SDS011;5978;51.020;6.764;2023-05-10T05:56:10;21.93;;;13.00;;
11837;SDS011;5978;51.020;6.764;2023-05-10T05:58:35;22.03;;;13.67;;
11837;SDS011;5978;51.020;6.764;2023-05-10T06:01:01;27.33;;;14.00;;
11837;SDS011;5978;51.020;6.764;2023-05-10T06:03:26;32.87;;;13.87;;
11837;SDS011;5978;51.020;6.764;2023-05-10T06:05:52;25.00;;;13.67;;
11837;SDS011;5978;51.020;6.764;2023-05-10T06:08:17;25.37;;;15.03;;
11837;SDS011;5978;51.020;6.764;2023-05-10T06:10:43;24.07;;;13.00;;
11837;SDS011;5978;51.020;6.764;2023-05-10T06:13:09;26.20;;;13.53;;
11837;SDS011;5978;51.020;6.764;2023-05-10T06:15:35;23.00;;;13.13;;
11837;SDS011;5978;51.020;6.764;2023-05-10T06:18:00;22.90;;;13.63;;
11837;SDS011;5978;51.020;6.764;2023-05-10T06:20:26;24.20;;;13.63;;
11837;SDS011;5978;51.020;6.764;2023-05-10T06:22:51;18.80;;;12.47;;
11837;SDS011;5978;51.020;6.764;2023-05-10T06:25:17;27.63;;;13.73;;
11837;SDS011;5978;51.020;6.764;2023-05-10T06:27:43;28.90;;;14.10;;
11837;SDS011;5978;51.020;6.764;2023-05-10T06:30:09;24.10;;;13.90;;
11837;SDS011;5978;51.020;6.764;2023-05-10T06:32:35;35.20;;;16.70;;
11837;SDS011;5978;51.020;6.764;2023-05-10T06:35:01;29.23;;;15.70;;
11837;SDS011;5978;51.020;6.764;2023-05-10T06:37:26;25.50;;;14.53;;
11837;SDS011;5978;51.020;6.764;2023-05-10T06:39:52;30.47;;;14.00;;
11837;SDS011;5978;51.020;6.764;2023-05-10T06:42:17;29.40;;;15.27;;
11837;SDS011;5978;51.020;6.764;2023-05-10T06:44:43;27.20;;;14.90;;
11837;SDS011;5978;51.020;6.764;2023-05-10T06:47:08;27.87;;;15.07;;
11837;SDS011;5978;51.020;6.764;2023-05-10T06:49:34;25.27;;;14.47;;
11837;SDS011;5978;51.020;6.764;2023-05-10T06:52:00;30.40;;;16.97;;
11837;SDS011;5978;51.020;6.764;2023-05-10T06:54:25;32.10;;;15.27;;
11837;SDS011;5978;51.020;6.764;2023-05-10T06:56:51;27.53;;;15.63;;
11837;SDS011;5978;51.020;6.764;2023-05-10T06:59:17;26.20;;;14.90;;
11837;SDS011;5978;51.020;6.764;2023-05-10T07:01:44;28.00;;;14.30;;
11837;SDS011;5978;51.020;6.764;2023-05-10T07:04:09;34.33;;;17.67;;
11837;SDS011;5978;51.020;6.764;2023-05-10T07:06:35;29.83;;;15.30;;
11837;SDS011;5978;51.020;6.764;2023-05-10T07:09:00;27.37;;;14.73;;
11837;SDS011;5978;51.020;6.764;2023-05-10T07:11:26;25.73;;;15.70;;
11837;SDS011;5978;51.020;6.764;2023-05-10T07:13:52;27.13;;;15.30;;
11837;SDS011;5978;51.020;6.764;2023-05-10T07:16:17;21.57;;;14.90;;
11837;SDS011;5978;51.020;6.764;2023-05-10T07:18:43;28.70;;;15.37;;
11837;SDS011;5978;51.020;6.764;2023-05-10T07:21:09;21.23;;;13.27;;
11837;SDS011;5978;51.020;6.764;2023-05-10T07:23:34;27.07;;;15.17;;
11837;SDS011;5978;51.020;6.764;2023-05-10T07:26:00;33.70;;;15.33;;
11837;SDS011;5978;51.020;6.764;2023-05-10T07:28:27;25.80;;;14.17;;
11837;SDS011;5978;51.020;6.764;2023-05-10T07:30:52;23.00;;;13.70;;
11837;SDS011;5978;51.020;6.764;2023-05-10T07:33:18;22.20;;;14.70;;
11837;SDS011;5978;51.020;6.764;2023-05-10T07:35:43;24.27;;;13.60;;
11837;SDS011;5978;51.020;6.764;2023-05-10T07:38:09;20.03;;;13.20;;
11837;SDS011;5978;51.020;6.764;2023-05-10T07:40:36;26.30;;;13.47;;
11837;SDS011;5978;51.020;6.764;2023-05-10T07:43:01;23.00;;;13.33;;
11837;SDS011;5978;51.020;6.764;2023-05-10T07:45:27;25.70;;;14.90;;
11837;SDS011;5978;51.020;6.764;2023-05-10T07:47:53;18.03;;;12.27;;
11837;SDS011;5978;51.020;6.764;2023-05-10T07:50:19;21.53;;;13.27;;
11837;SDS011;5978;51.020;6.764;2023-05-10T07:52:46;19.90;;;12.33;;
11837;SDS011;5978;51.020;6.764;2023-05-10T07:55:11;18.20;;;11.20;;
11837;SDS011;5978;51.020;6.764;2023-05-10T07:57:37;23.27;;;12.70;;
11837;SDS011;5978;51.020;6.764;2023-05-10T08:00:03;23.00;;;12.17;;
11837;SDS011;5978;51.020;6.764;2023-05-10T08:02:29;18.40;;;11.60;;
11837;SDS011;5978;51.020;6.764;2023-05-10T08:04:55;18.23;;;11.27;;
11837;SDS011;5978;51.020;6.764;2023-05-10T08:07:20;20.17;;;12.70;;
11837;SDS011;5978;51.020;6.764;2023-05-10T08:09:46;19.77;;;12.20;;
11837;SDS011;5978;51.020;6.764;2023-05-10T08:12:12;19.20;;;13.30;;
11837;SDS011;5978;51.020;6.764;2023-05-10T08:14:37;20.60;;;15.27;;
11837;SDS011;5978;51.020;6.764;2023-05-10T08:17:03;18.90;;;13.10;;
11837;SDS011;5978;51.020;6.764;2023-05-10T08:19:29;23.00;;;14.60;;
11837;SDS011;5978;51.020;6.764;2023-05-10T08:21:54;22.90;;;14.27;;
11837;SDS011;5978;51.020;6.764;2023-05-10T08:24:23;26.17;;;15.27;;
11837;SDS011;5978;51.020;6.764;2023-05-10T08:26:48;28.30;;;14.77;;
11837;SDS011;5978;51.020;6.764;2023-05-10T08:29:14;24.53;;;14.80;;
11837;SDS011;5978;51.020;6.764;2023-05-10T08:31:40;27.03;;;15.87;;
11837;SDS011;5978;51.020;6.764;2023-05-10T08:34:05;30.43;;;16.00;;
11837;SDS011;5978;51.020;6.764;2023-05-10T08:36:31;41.60;;;17.60;;
11837;SDS011;5978;51.020;6.764;2023-05-10T08:38:57;30.83;;;17.03;;
11837;SDS011;5978;51.020;6.764;2023-05-10T08:41:23;37.13;;;17.63;;
11837;SDS011;5978;51.020;6.764;2023-05-10T08:43:50;35.57;;;18.87;;
11837;SDS011;5978;51.020;6.764;2023-05-10T08:46:17;35.60;;;18.70;;
11837;SDS011;5978;51.020;6.764;2023-05-10T08:48:44;34.00;;;18.33;;
11837;SDS011;5978;51.020;6.764;2023-05-10T08:51:13;35.50;;;18.47;;
11837;SDS011;5978;51.020;6.764;2023-05-10T08:53:39;33.60;;;18.37;;
11837;SDS011;5978;51.020;6.764;2023-05-10T08:56:05;35.30;;;20.00;;
11837;SDS011;5978;51.020;6.764;2023-05-10T08:58:31;40.27;;;18.37;;
11837;SDS011;5978;51.020;6.764;2023-05-10T09:00:57;36.40;;;18.40;;
11837;SDS011;5978;51.020;6.764;2023-05-10T09:03:24;42.93;;;20.10;;
11837;SDS011;5978;51.020;6.764;2023-05-10T09:05:49;33.30;;;19.37;;
11837;SDS011;5978;51.020;6.764;2023-05-10T09:08:15;32.67;;;18.17;;
11837;SDS011;5978;51.020;6.764;2023-05-10T09:10:42;39.10;;;18.63;;
11837;SDS011;5978;51.020;6.764;2023-05-10T09:13:09;29.03;;;16.30;;
11837;SDS011;5978;51.020;6.764;2023-05-10T09:15:36;32.87;;;16.37;;
11837;SDS011;5978;51.020;6.764;2023-05-10T09:18:02;31.30;;;17.30;;
11837;SDS011;5978;51.020;6.764;2023-05-10T09:20:28;27.73;;;17.63;;
11837;SDS011;5978;51.020;6.764;2023-05-10T09:22:54;28.03;;;15.80;;
11837;SDS011;5978;51.020;6.764;2023-05-10T09:25:20;25.23;;;15.93;;
11837;SDS011;5978;51.020;6.764;2023-05-10T09:27:46;26.57;;;16.17;;
11837;SDS011;5978;51.020;6.764;2023-05-10T09:30:16;26.80;;;14.93;;
11837;SDS011;5978;51.020;6.764;2023-05-10T09:32:48;22.43;;;14.40;;
11837;SDS011;5978;51.020;6.764;2023-05-10T09:35:16;21.73;;;13.93;;
11837;SDS011;5978;51.020;6.764;2023-05-10T09:37:44;20.00;;;13.63;;
11837;SDS011;5978;51.020;6.764;2023-05-10T09:40:33;24.40;;;14.60;;
11837;SDS011;5978;51.020;6.764;2023-05-10T09:43:06;23.27;;;14.20;;
11837;SDS011;5978;51.020;6.764;2023-05-10T09:45:33;17.10;;;12.33;;
11837;SDS011;5978;51.020;6.764;2023-05-10T09:48:00;17.77;;;14.47;;
11837;SDS011;5978;51.020;6.764;2023-05-10T09:50:27;27.83;;;14.07;;
11837;SDS011;5978;51.020;6.764;2023-05-10T09:52:57;24.43;;;14.53;;
11837;SDS011;5978;51.020;6.764;2023-05-10T09:55:26;18.40;;;12.90;;
11837;SDS011;5978;51.020;6.764;2023-05-10T09:58:07;24.77;;;15.37;;
11837;SDS011;5978;51.020;6.764;2023-05-10T10:00:41;22.00;;;14.07;;
11837;SDS011;5978;51.020;6.764;2023-05-10T10:03:15;23.43;;;14.20;;
11837;SDS011;5978;51.020;6.764;2023-05-10T10:05:44;22.33;;;14.00;;
11837;SDS011;5978;51.020;6.764;2023-05-10T10:08:11;24.33;;;14.20;;
11837;SDS011;5978;51.020;6.764;2023-05-10T10:10:37;20.47;;;14.00;;
11837;SDS011;5978;51.020;6.764;2023-05-10T10:13:06;17.50;;;12.80;;
11837;SDS011;5978;51.020;6.764;2023-05-10T10:15:33;20.40;;;12.40;;
11837;SDS011;5978;51.020;6.764;2023-05-10T10:17:59;17.63;;;12.00;;
11837;SDS011;5978;51.020;6.764;2023-05-10T10:20:26;19.33;;;12.60;;
11837;SDS011;5978;51.020;6.764;2023-05-10T10:22:52;19.83;;;11.80;;
11837;SDS011;5978;51.020;6.764;2023-05-10T10:25:18;20.40;;;11.50;;
11837;SDS011;5978;51.020;6.764;2023-05-10T10:30:25;14.40;;;10.53;;
11837;SDS011;5978;51.020;6.764;2023-05-10T10:35:49;13.40;;;9.90;;
11837;SDS011;5978;51.020;6.764;2023-05-10T10:38:15;15.20;;;9.90;;
11837;SDS011;5978;51.020;6.764;2023-05-10T10:40:42;22.77;;;9.87;;
11837;SDS011;5978;51.020;6.764;2023-05-10T10:48:47;10.60;;;8.43;;
11837;SDS011;5978;51.020;6.764;2023-05-10T10:51:14;9.73;;;8.10;;
11837;SDS011;5978;51.020;6.764;2023-05-10T10:53:40;11.03;;;7.60;;
11837;SDS011;5978;51.020;6.764;2023-05-10T10:56:07;11.90;;;7.53;;
11837;SDS011;5978;51.020;6.764;2023-05-10T10:58:34;11.50;;;8.30;;
11837;SDS011;5978;51.020;6.764;2023-05-10T11:01:34;10.53;;;7.17;;
11837;SDS011;5978;51.020;6.764;2023-05-10T11:06:32;10.80;;;7.27;;
11837;SDS011;5978;51.020;6.764;2023-05-10T11:08:59;8.90;;;6.73;;
11837;SDS011;5978;51.020;6.764;2023-05-10T11:11:32;12.80;;;7.23;;
11837;SDS011;5978;51.020;6.764;2023-05-10T11:14:03;10.73;;;6.63;;
11837;SDS011;5978;51.020;6.764;2023-05-10T11:16:40;8.37;;;7.37;;
11837;SDS011;5978;51.020;6.764;2023-05-10T11:19:08;7.70;;;6.80;;
11837;SDS011;5978;51.020;6.764;2023-05-10T11:24:36;10.23;;;7.80;;
11837;SDS011;5978;51.020;6.764;2023-05-10T11:27:01;8.80;;;6.43;;
11837;SDS011;5978;51.020;6.764;2023-05-10T11:29:27;8.70;;;6.10;;
11837;SDS011;5978;51.020;6.764;2023-05-10T11:31:53;6.50;;;5.13;;
11837;SDS011;5978;51.020;6.764;2023-05-10T11:34:31;5.60;;;5.00;;
11837;SDS011;5978;51.020;6.764;2023-05-10T11:37:00;5.70;;;4.90;;
11837;SDS011;5978;51.020;6.764;2023-05-10T11:39:27;5.73;;;5.10;;
11837;SDS011;5978;51.020;6.764;2023-05-10T11:41:54;7.13;;;5.90;;
11837;SDS011;5978;51.020;6.764;2023-05-10T11:44:20;5.77;;;4.80;;
11837;SDS011;5978;51.020;6.764;2023-05-10T11:46:45;5.53;;;4.00;;
11837;SDS011;5978;51.020;6.764;2023-05-10T11:49:11;4.90;;;3.20;;
11837;SDS011;5978;51.020;6.764;2023-05-10T11:51:38;4.37;;;3.20;;
11837;SDS011;5978;51.020;6.764;2023-05-10T11:54:08;8.03;;;4.20;;
11837;SDS011;5978;51.020;6.764;2023-05-10T11:56:35;7.10;;;3.77;;
11837;SDS011;5978;51.020;6.764;2023-05-10T11:59:05;3.20;;;2.90;;
11837;SDS011;5978;51.020;6.764;2023-05-10T12:01:31;2.70;;;2.50;;
11837;SDS011;5978;51.020;6.764;2023-05-10T12:03:57;2.50;;;2.30;;
11837;SDS011;5978;51.020;6.764;2023-05-10T12:06:28;2.30;;;2.10;;
11837;SDS011;5978;51.020;6.764;2023-05-10T12:08:55;2.37;;;2.17;;
11837;SDS011;5978;51.020;6.764;2023-05-10T12:11:24;4.27;;;2.13;;
11837;SDS011;5978;51.020;6.764;2023-05-10T12:13:50;2.70;;;2.17;;
11837;SDS011;5978;51.020;6.764;2023-05-10T12:16:17;3.70;;;2.87;;
11837;SDS011;5978;51.020;6.764;2023-05-10T12:18:43;2.43;;;2.23;;
11837;SDS011;5978;51.020;6.764;2023-05-10T12:21:10;3.20;;;2.53;;
11837;SDS011;5978;51.020;6.764;2023-05-10T12:23:36;3.40;;;3.10;;
11837;SDS011;5978;51.020;6.764;2023-05-10T12:26:03;3.30;;;2.90;;
11837;SDS011;5978;51.020;6.764;2023-05-10T12:28:32;3.60;;;3.30;;
11837;SDS011;5978;51.020;6.764;2023-05-10T12:30:58;3.90;;;3.40;;
11837;SDS011;5978;51.020;6.764;2023-05-10T12:33:24;3.33;;;3.03;;
11837;SDS011;5978;51.020;6.764;2023-05-10T12:35:54;3.37;;;3.07;;
11837;SDS011;5978;51.020;6.764;2023-05-10T12:40:56;3.27;;;2.97;;
11837;SDS011;5978;51.020;6.764;2023-05-10T12:43:22;5.33;;;3.40;;
11837;SDS011;5978;51.020;6.764;2023-05-10T12:45:48;5.20;;;3.73;;
11837;SDS011;5978;51.020;6.764;2023-05-10T12:48:14;5.40;;;4.10;;
11837;SDS011;5978;51.020;6.764;2023-05-10T12:50:40;7.53;;;4.17;;
11837;SDS011;5978;51.020;6.764;2023-05-10T12:53:06;3.87;;;3.50;;
11837;SDS011;5978;51.020;6.764;2023-05-10T12:55:31;3.83;;;3.47;;
11837;SDS011;5978;51.020;6.764;2023-05-10T12:57:57;7.60;;;3.50;;
11837;SDS011;5978;51.020;6.764;2023-05-10T13:00:23;4.47;;;4.03;;
11837;SDS011;5978;51.020;6.764;2023-05-10T13:02:48;4.10;;;3.53;;
11837;SDS011;5978;51.020;6.764;2023-05-10T13:05:14;4.20;;;3.80;;
11837;SDS011;5978;51.020;6.764;2023-05-10T13:07:39;5.03;;;3.90;;
11837;SDS011;5978;51.020;6.764;2023-05-10T13:10:05;4.10;;;3.30;;
11837;SDS011;5978;51.020;6.764;2023-05-10T13:12:31;4.90;;;3.53;;
11837;SDS011;5978;51.020;6.764;2023-05-10T13:14:57;4.07;;;2.83;;
11837;SDS011;5978;51.020;6.764;2023-05-10T13:17:24;5.87;;;3.70;;
11837;SDS011;5978;51.020;6.764;2023-05-10T13:19:50;4.20;;;3.80;;
11837;SDS011;5978;51.020;6.764;2023-05-10T13:22:16;4.63;;;3.00;;
11837;SDS011;5978;51.020;6.764;2023-05-10T13:24:42;3.20;;;2.87;;
11837;SDS011;5978;51.020;6.764;2023-05-10T13:27:07;2.60;;;2.40;;
11837;SDS011;5978;51.020;6.764;2023-05-10T13:29:33;2.63;;;2.43;;
11837;SDS011;5978;51.020;6.764;2023-05-10T13:31:58;2.47;;;2.00;;
11837;SDS011;5978;51.020;6.764;2023-05-10T13:34:24;3.47;;;2.33;;
11837;SDS011;5978;51.020;6.764;2023-05-10T13:36:50;2.50;;;2.30;;
11837;SDS011;5978;51.020;6.764;2023-05-10T13:39:16;3.00;;;2.60;;
11837;SDS011;5978;51.020;6.764;2023-05-10T13:41:42;2.23;;;2.03;;
11837;SDS011;5978;51.020;6.764;2023-05-10T13:44:07;2.47;;;2.27;;
11837;SDS011;5978;51.020;6.764;2023-05-10T13:46:33;2.77;;;2.47;;
11837;SDS011;5978;51.020;6.764;2023-05-10T13:48:58;2.50;;;2.30;;
11837;SDS011;5978;51.020;6.764;2023-05-10T13:51:24;3.27;;;2.83;;
11837;SDS011;5978;51.020;6.764;2023-05-10T13:53:49;2.23;;;1.70;;
11837;SDS011;5978;51.020;6.764;2023-05-10T13:56:15;2.93;;;2.50;;
11837;SDS011;5978;51.020;6.764;2023-05-10T13:58:41;3.03;;;2.73;;
11837;SDS011;5978;51.020;6.764;2023-05-10T14:01:06;2.43;;;1.70;;
11837;SDS011;5978;51.020;6.764;2023-05-10T14:03:32;2.23;;;2.03;;
11837;SDS011;5978;51.020;6.764;2023-05-10T14:05:58;2.23;;;2.00;;
11837;SDS011;5978;51.020;6.764;2023-05-10T14:08:23;2.33;;;2.13;;
11837;SDS011;5978;51.020;6.764;2023-05-10T14:10:49;2.10;;;1.90;;
11837;SDS011;5978;51.020;6.764;2023-05-10T14:13:15;3.70;;;2.70;;
11837;SDS011;5978;51.020;6.764;2023-05-10T14:15:41;2.07;;;1.87;;
11837;SDS011;5978;51.020;6.764;2023-05-10T14:18:06;2.70;;;2.00;;
11837;SDS011;5978;51.020;6.764;2023-05-10T14:20:32;3.20;;;2.30;;
11837;SDS011;5978;51.020;6.764;2023-05-10T14:22:58;2.23;;;2.03;;
11837;SDS011;5978;51.020;6.764;2023-05-10T14:25:24;3.60;;;2.33;;
11837;SDS011;5978;51.020;6.764;2023-05-10T14:27:50;2.63;;;2.43;;
11837;SDS011;5978;51.020;6.764;2023-05-10T14:30:16;3.43;;;2.90;;
11837;SDS011;5978;51.020;6.764;2023-05-10T14:32:41;4.20;;;2.67;;
11837;SDS011;5978;51.020;6.764;2023-05-10T14:35:07;3.67;;;2.93;;
11837;SDS011;5978;51.020;6.764;2023-05-10T14:37:33;4.07;;;2.87;;
11837;SDS011;5978;51.020;6.764;2023-05-10T14:39:59;2.90;;;2.63;;
11837;SDS011;5978;51.020;6.764;2023-05-10T14:42:25;2.53;;;2.33;;
11837;SDS011;5978;51.020;6.764;2023-05-10T14:44:51;3.10;;;2.20;;
11837;SDS011;5978;51.020;6.764;2023-05-10T14:47:16;3.17;;;2.90;;
11837;SDS011;5978;51.020;6.764;2023-05-10T14:49:42;2.93;;;2.60;;
11837;SDS011;5978;51.020;6.764;2023-05-10T14:52:07;3.03;;;2.67;;
11837;SDS011;5978;51.020;6.764;2023-05-10T14:54:33;3.13;;;2.67;;
11837;SDS011;5978;51.020;6.764;2023-05-10T14:56:58;6.53;;;2.60;;
11837;SDS011;5978;51.020;6.764;2023-05-10T14:59:25;3.00;;;2.70;;
11837;SDS011;5978;51.020;6.764;2023-05-10T15:01:50;3.60;;;2.70;;
11837;SDS011;5978;51.020;6.764;2023-05-10T15:04:16;5.87;;;2.60;;
11837;SDS011;5978;51.020;6.764;2023-05-10T15:06:42;2.70;;;2.10;;
11837;SDS011;5978;51.020;6.764;2023-05-10T15:09:07;5.23;;;2.80;;
11837;SDS011;5978;51.020;6.764;2023-05-10T15:11:33;3.37;;;3.07;;
11837;SDS011;5978;51.020;6.764;2023-05-10T15:13:59;3.67;;;2.47;;
11837;SDS011;5978;51.020;6.764;2023-05-10T15:16:26;3.70;;;2.83;;
11837;SDS011;5978;51.020;6.764;2023-05-10T15:18:52;3.20;;;2.50;;
11837;SDS011;5978;51.020;6.764;2023-05-10T15:21:17;3.33;;;3.00;;
11837;SDS011;5978;51.020;6.764;2023-05-10T15:23:43;3.03;;;2.70;;
11837;SDS011;5978;51.020;6.764;2023-05-10T15:26:09;6.13;;;2.80;;